Terminal Aerodrome Forecast
Issued by NWS

Home | Current Version | Previous Version | Graphics & Text | Print | Product List | Glossary On
Versions: 1 2 3 4 5 6 7 8 9 10 11 12 13 14 15 16 17 18 19 20 21 22 23
463
FTUS43 KABR 062214 AAA
TAFATY
TAF AMD
KATY 062214Z 0622/0718 27024G34KT 1SM -SN BLSN VV014
     FM070000 29027G38KT 2SM BLSN BKN025
     FM070300 29021G30KT P6SM BKN015
     FM071000 29018G26KT P6SM BKN025
     FM071300 29018G27KT P6SM BKN015=

USA.gov is the U.S. government's official web portal to all federal, state and local government web resources and services.